Scf Primorye — A8SW6 — position and weather

sailwx.info

Track history (hours):
 
Tides and Currents Weather Stations Pressure Air Temp Water Temp Dewpoint Dewpoint Depression Visibility Wind Speed Wind Dir Waves Ship Positions

Scf Primorye

Last reported at 2017-Sep-16 10:00 UTC. Time now 2017-Sep-22 04:35 UTC.
Position N 25°60' W 079°20'.

Length 273 m; draft 11.9 m.

Type: Ship (hazmat cat D). MMSI: 636014308.

Date/timePositionNaut miles runAvg speedWind from/ knotsBaromVisibWave heightAir tempDewpointWater temp
2017-Sep-16 10:00N 25°60' W 079°20'713.4
2017-Sep-16 09:29N 25°53' W 079°22'713.4
2017-Sep-16 09:00N 25°47' W 079°25'713.7
2017-Sep-16 08:30N 25°40' W 079°27'714.0
2017-Sep-16 08:00N 25°34' W 079°29'713.7
2017-Sep-16 07:30N 25°27' W 079°32'  
2017-Sep-12 23:35N 29°21' W 094°43'311.5
2017-Sep-12 23:20N 29°21' W 094°46'610.6
2017-Sep-12 22:47N 29°25' W 094°50'510.7
2017-Sep-12 22:21N 29°30' W 094°52'410.3
2017-Sep-12 22:01N 29°33' W 094°54'5 9.7
2017-Sep-12 21:30N 29°37' W 094°57'5 9.3
2017-Sep-12 21:01N 29°41' W 094°59'4 7.6
2017-Sep-12 20:30N 29°44' W 095°02'4 6.7
2017-Sep-12 19:58N 29°46' W 095°05'2 4.8
2017-Sep-12 19:29N 29°44' W 095°08'0 0.4
2017-Sep-12 18:59N 29°44' W 095°08'  
2017-Sep-09 22:18N 29°44' W 095°08'0 0.6
2017-Sep-09 22:00N 29°44' W 095°08'2 3.4
2017-Sep-09 21:30N 29°45' W 095°06'2 4.6
2017-Sep-09 21:00N 29°44' W 095°03'3 5.7
2017-Sep-09 20:30N 29°42' W 095°01'4 7.9
2017-Sep-09 20:00N 29°39' W 094°58'611.1
2017-Sep-09 19:30N 29°34' W 094°55'611.4
2017-Sep-09 19:00N 29°29' W 094°52'611.6
2017-Sep-09 18:30N 29°24' W 094°49'  
Track history (hours):
 
Tides and Currents Weather Stations Pressure Air Temp Water Temp Dewpoint Dewpoint Depression Visibility Wind Speed Wind Dir Waves Ship Positions

Scf Primorye

Last reported at 2017-Sep-16 10:00 UTC. Time now 2017-Sep-22 04:35 UTC.
Position N 25°60' W 079°20'.

Length 273 m; draft 11.9 m.

Type: Ship (hazmat cat D). MMSI: 636014308.

Date/timePositionNaut miles runAvg speedWind from/ knotsBaromVisibWave heightAir tempDewpointWater temp
2017-Sep-16 10:00N 25°60' W 079°20'713.4
2017-Sep-16 09:29N 25°53' W 079°22'713.4
2017-Sep-16 09:00N 25°47' W 079°25'713.7
2017-Sep-16 08:30N 25°40' W 079°27'714.0
2017-Sep-16 08:00N 25°34' W 079°29'713.7
2017-Sep-16 07:30N 25°27' W 079°32'  
2017-Sep-12 23:35N 29°21' W 094°43'311.5
2017-Sep-12 23:20N 29°21' W 094°46'610.6
2017-Sep-12 22:47N 29°25' W 094°50'510.7
2017-Sep-12 22:21N 29°30' W 094°52'410.3
2017-Sep-12 22:01N 29°33' W 094°54'5 9.7
2017-Sep-12 21:30N 29°37' W 094°57'5 9.3
2017-Sep-12 21:01N 29°41' W 094°59'4 7.6
2017-Sep-12 20:30N 29°44' W 095°02'4 6.7
2017-Sep-12 19:58N 29°46' W 095°05'2 4.8
2017-Sep-12 19:29N 29°44' W 095°08'0 0.4
2017-Sep-12 18:59N 29°44' W 095°08'  
2017-Sep-09 22:18N 29°44' W 095°08'0 0.6
2017-Sep-09 22:00N 29°44' W 095°08'2 3.4
2017-Sep-09 21:30N 29°45' W 095°06'2 4.6
2017-Sep-09 21:00N 29°44' W 095°03'3 5.7
2017-Sep-09 20:30N 29°42' W 095°01'4 7.9
2017-Sep-09 20:00N 29°39' W 094°58'611.1
2017-Sep-09 19:30N 29°34' W 094°55'611.4
2017-Sep-09 19:00N 29°29' W 094°52'611.6
2017-Sep-09 18:30N 29°24' W 094°49'  

Dump ship's entire track history